Saratoga, Arkansas
Current Conditions -  °F | °C
As of 4:53 AM on Sunday 23 Nov 2014 (Local Time) from KTXK Reporting Station
Light Rain Light Rain  
Wind Chill: 61°   Ceiling: 600
Heat Index: 61°   Visibility: 10mi
Dew Point: 60°   Wind: 8mph
Humidity: 97%   Direction: 190°S
Pressure: 29.62"   Gusts: NA
Location:  33.75°N, 93.9°W
Report Text: KTXK 231053Z AUTO 19007KT 160V230 10SM -RA OVC006 16/16 A2962 RMK AO2 PK WND 15028/1006 SLP028 P0002 T01610156
Loading
Personal Weather Stations






























Interactive Weather Map New forecast layout! Learn more

10-Day Weather Forecast

Advertisements
Track Severe Weather on mobile